sensor_id;sensor_type;location;lat;lon;timestamp;P1;durP1;ratioP1;P2;durP2;ratioP2
44989;SDS011;30723;51.206;3.326;2022-11-20T00:00:50;58.97;;;29.13;;
44989;SDS011;30723;51.206;3.326;2022-11-20T00:03:16;55.13;;;27.35;;
44989;SDS011;30723;51.206;3.326;2022-11-20T00:05:42;57.67;;;27.35;;
44989;SDS011;30723;51.206;3.326;2022-11-20T00:08:08;64.15;;;28.33;;
44989;SDS011;30723;51.206;3.326;2022-11-20T00:10:37;56.58;;;27.20;;
44989;SDS011;30723;51.206;3.326;2022-11-20T00:13:04;70.35;;;27.98;;
44989;SDS011;30723;51.206;3.326;2022-11-20T00:15:30;57.75;;;27.38;;
44989;SDS011;30723;51.206;3.326;2022-11-20T00:17:56;66.20;;;30.02;;
44989;SDS011;30723;51.206;3.326;2022-11-20T00:20:22;66.85;;;29.10;;
44989;SDS011;30723;51.206;3.326;2022-11-20T00:22:48;64.82;;;30.13;;
44989;SDS011;30723;51.206;3.326;2022-11-20T00:25:14;64.28;;;28.50;;
44989;SDS011;30723;51.206;3.326;2022-11-20T00:27:41;70.93;;;30.75;;
44989;SDS011;30723;51.206;3.326;2022-11-20T00:30:06;66.72;;;28.48;;
44989;SDS011;30723;51.206;3.326;2022-11-20T00:32:33;66.13;;;30.15;;
44989;SDS011;30723;51.206;3.326;2022-11-20T00:34:58;73.35;;;29.77;;
44989;SDS011;30723;51.206;3.326;2022-11-20T00:37:24;72.85;;;29.75;;
44989;SDS011;30723;51.206;3.326;2022-11-20T00:39:50;79.20;;;32.28;;
44989;SDS011;30723;51.206;3.326;2022-11-20T00:42:15;80.55;;;33.75;;
44989;SDS011;30723;51.206;3.326;2022-11-20T00:44:41;77.70;;;32.58;;
44989;SDS011;30723;51.206;3.326;2022-11-20T00:47:07;72.68;;;31.80;;
44989;SDS011;30723;51.206;3.326;2022-11-20T00:49:32;68.05;;;30.80;;
44989;SDS011;30723;51.206;3.326;2022-11-20T00:51:58;71.38;;;31.08;;
44989;SDS011;30723;51.206;3.326;2022-11-20T00:54:24;75.35;;;29.67;;
44989;SDS011;30723;51.206;3.326;2022-11-20T00:56:52;78.25;;;30.30;;
44989;SDS011;30723;51.206;3.326;2022-11-20T00:59:18;63.88;;;28.63;;
44989;SDS011;30723;51.206;3.326;2022-11-20T01:01:44;71.05;;;30.95;;
44989;SDS011;30723;51.206;3.326;2022-11-20T01:04:09;67.85;;;29.73;;
44989;SDS011;30723;51.206;3.326;2022-11-20T01:06:36;74.97;;;31.38;;
44989;SDS011;30723;51.206;3.326;2022-11-20T01:09:04;73.55;;;31.63;;
44989;SDS011;30723;51.206;3.326;2022-11-20T01:11:33;89.05;;;32.75;;
44989;SDS011;30723;51.206;3.326;2022-11-20T01:14:01;80.65;;;34.80;;
44989;SDS011;30723;51.206;3.326;2022-11-20T01:16:29;80.18;;;32.72;;
44989;SDS011;30723;51.206;3.326;2022-11-20T01:18:56;82.35;;;32.83;;
44989;SDS011;30723;51.206;3.326;2022-11-20T01:21:24;84.40;;;33.00;;
44989;SDS011;30723;51.206;3.326;2022-11-20T01:23:55;82.40;;;34.40;;
44989;SDS011;30723;51.206;3.326;2022-11-20T01:26:23;81.72;;;33.15;;
44989;SDS011;30723;51.206;3.326;2022-11-20T01:28:51;78.93;;;33.00;;
44989;SDS011;30723;51.206;3.326;2022-11-20T01:31:22;72.50;;;32.58;;
44989;SDS011;30723;51.206;3.326;2022-11-20T01:33:50;71.53;;;32.35;;
44989;SDS011;30723;51.206;3.326;2022-11-20T01:36:18;73.20;;;34.45;;
44989;SDS011;30723;51.206;3.326;2022-11-20T01:38:46;82.60;;;33.88;;
44989;SDS011;30723;51.206;3.326;2022-11-20T01:41:12;72.32;;;31.38;;
44989;SDS011;30723;51.206;3.326;2022-11-20T01:44:09;80.05;;;31.67;;
44989;SDS011;30723;51.206;3.326;2022-11-20T01:46:38;75.88;;;32.50;;
44989;SDS011;30723;51.206;3.326;2022-11-20T01:49:11;74.00;;;31.17;;
44989;SDS011;30723;51.206;3.326;2022-11-20T01:51:55;74.40;;;31.65;;
44989;SDS011;30723;51.206;3.326;2022-11-20T01:54:27;78.47;;;32.70;;
44989;SDS011;30723;51.206;3.326;2022-11-20T01:57:00;73.15;;;31.23;;
44989;SDS011;30723;51.206;3.326;2022-11-20T01:59:27;74.22;;;32.65;;
44989;SDS011;30723;51.206;3.326;2022-11-20T02:01:54;79.03;;;32.88;;
44989;SDS011;30723;51.206;3.326;2022-11-20T02:04:20;75.40;;;32.05;;
44989;SDS011;30723;51.206;3.326;2022-11-20T02:06:49;76.25;;;33.47;;
44989;SDS011;30723;51.206;3.326;2022-11-20T02:09:22;80.88;;;32.72;;
44989;SDS011;30723;51.206;3.326;2022-11-20T02:11:48;79.07;;;32.55;;
44989;SDS011;30723;51.206;3.326;2022-11-20T02:14:14;81.28;;;33.30;;
44989;SDS011;30723;51.206;3.326;2022-11-20T02:16:41;72.47;;;31.15;;
44989;SDS011;30723;51.206;3.326;2022-11-20T02:19:17;76.57;;;34.00;;
44989;SDS011;30723;51.206;3.326;2022-11-20T02:24:20;87.25;;;32.47;;
44989;SDS011;30723;51.206;3.326;2022-11-20T02:29:37;80.63;;;33.85;;
44989;SDS011;30723;51.206;3.326;2022-11-20T02:32:04;85.28;;;33.67;;
44989;SDS011;30723;51.206;3.326;2022-11-20T02:34:30;79.38;;;31.35;;
44989;SDS011;30723;51.206;3.326;2022-11-20T02:36:56;78.95;;;33.17;;
44989;SDS011;30723;51.206;3.326;2022-11-20T02:39:24;71.57;;;30.65;;
44989;SDS011;30723;51.206;3.326;2022-11-20T02:41:52;82.82;;;33.80;;
44989;SDS011;30723;51.206;3.326;2022-11-20T02:44:20;80.55;;;31.40;;
44989;SDS011;30723;51.206;3.326;2022-11-20T02:46:46;78.10;;;32.00;;
44989;SDS011;30723;51.206;3.326;2022-11-20T02:49:12;76.47;;;33.55;;
44989;SDS011;30723;51.206;3.326;2022-11-20T02:51:37;77.82;;;32.20;;
44989;SDS011;30723;51.206;3.326;2022-11-20T02:54:03;81.03;;;32.85;;
44989;SDS011;30723;51.206;3.326;2022-11-20T02:56:29;77.72;;;32.10;;
44989;SDS011;30723;51.206;3.326;2022-11-20T02:58:55;75.88;;;33.20;;
44989;SDS011;30723;51.206;3.326;2022-11-20T03:01:21;74.00;;;32.33;;
44989;SDS011;30723;51.206;3.326;2022-11-20T03:03:47;79.80;;;31.67;;
44989;SDS011;30723;51.206;3.326;2022-11-20T03:06:17;76.43;;;32.38;;
44989;SDS011;30723;51.206;3.326;2022-11-20T03:08:43;75.05;;;32.72;;
44989;SDS011;30723;51.206;3.326;2022-11-20T03:11:08;79.90;;;31.38;;
44989;SDS011;30723;51.206;3.326;2022-11-20T03:13:34;80.25;;;32.60;;
44989;SDS011;30723;51.206;3.326;2022-11-20T03:16:11;83.22;;;31.63;;
44989;SDS011;30723;51.206;3.326;2022-11-20T03:18:39;75.45;;;32.03;;
44989;SDS011;30723;51.206;3.326;2022-11-20T03:21:06;80.43;;;34.05;;
44989;SDS011;30723;51.206;3.326;2022-11-20T03:23:32;81.43;;;33.90;;
44989;SDS011;30723;51.206;3.326;2022-11-20T03:26:12;82.97;;;33.40;;
44989;SDS011;30723;51.206;3.326;2022-11-20T03:28:41;81.97;;;32.60;;
44989;SDS011;30723;51.206;3.326;2022-11-20T03:31:11;85.00;;;33.50;;
44989;SDS011;30723;51.206;3.326;2022-11-20T03:33:39;87.07;;;33.92;;
44989;SDS011;30723;51.206;3.326;2022-11-20T03:36:06;77.80;;;33.70;;
44989;SDS011;30723;51.206;3.326;2022-11-20T03:38:34;83.25;;;32.92;;
44989;SDS011;30723;51.206;3.326;2022-11-20T03:41:00;77.30;;;32.58;;
44989;SDS011;30723;51.206;3.326;2022-11-20T03:43:28;85.38;;;32.58;;
44989;SDS011;30723;51.206;3.326;2022-11-20T03:45:54;85.97;;;33.88;;
44989;SDS011;30723;51.206;3.326;2022-11-20T03:48:20;93.13;;;33.78;;
44989;SDS011;30723;51.206;3.326;2022-11-20T03:50:46;81.97;;;33.38;;
44989;SDS011;30723;51.206;3.326;2022-11-20T03:53:14;76.38;;;33.67;;
44989;SDS011;30723;51.206;3.326;2022-11-20T03:55:41;84.03;;;35.35;;
44989;SDS011;30723;51.206;3.326;2022-11-20T03:58:07;85.30;;;34.72;;
44989;SDS011;30723;51.206;3.326;2022-11-20T04:00:33;84.45;;;33.47;;
44989;SDS011;30723;51.206;3.326;2022-11-20T04:02:59;79.38;;;33.88;;
44989;SDS011;30723;51.206;3.326;2022-11-20T04:05:28;83.88;;;34.58;;
44989;SDS011;30723;51.206;3.326;2022-11-20T04:07:54;85.63;;;33.75;;
44989;SDS011;30723;51.206;3.326;2022-11-20T04:10:19;93.68;;;35.97;;
44989;SDS011;30723;51.206;3.326;2022-11-20T04:12:45;91.05;;;35.15;;
44989;SDS011;30723;51.206;3.326;2022-11-20T04:15:11;88.63;;;36.00;;
44989;SDS011;30723;51.206;3.326;2022-11-20T04:17:39;88.22;;;34.78;;
44989;SDS011;30723;51.206;3.326;2022-11-20T04:20:05;88.22;;;35.10;;
44989;SDS011;30723;51.206;3.326;2022-11-20T04:22:31;94.07;;;35.13;;
44989;SDS011;30723;51.206;3.326;2022-11-20T04:24:57;90.38;;;36.08;;
44989;SDS011;30723;51.206;3.326;2022-11-20T04:27:22;84.68;;;34.83;;
44989;SDS011;30723;51.206;3.326;2022-11-20T04:29:48;92.20;;;35.15;;
44989;SDS011;30723;51.206;3.326;2022-11-20T04:32:14;89.00;;;35.03;;
44989;SDS011;30723;51.206;3.326;2022-11-20T04:34:40;77.47;;;32.22;;
44989;SDS011;30723;51.206;3.326;2022-11-20T04:37:05;86.20;;;34.38;;
44989;SDS011;30723;51.206;3.326;2022-11-20T04:39:31;95.18;;;36.25;;
44989;SDS011;30723;51.206;3.326;2022-11-20T04:41:57;90.80;;;34.75;;
44989;SDS011;30723;51.206;3.326;2022-11-20T04:44:41;89.55;;;33.10;;
44989;SDS011;30723;51.206;3.326;2022-11-20T04:47:07;94.35;;;35.25;;
44989;SDS011;30723;51.206;3.326;2022-11-20T04:49:32;97.85;;;35.55;;
44989;SDS011;30723;51.206;3.326;2022-11-20T04:51:59;86.30;;;34.10;;
44989;SDS011;30723;51.206;3.326;2022-11-20T04:54:24;94.65;;;36.80;;
44989;SDS011;30723;51.206;3.326;2022-11-20T04:56:50;90.72;;;35.28;;
44989;SDS011;30723;51.206;3.326;2022-11-20T04:59:16;97.20;;;36.67;;
44989;SDS011;30723;51.206;3.326;2022-11-20T05:01:42;97.47;;;34.75;;
44989;SDS011;30723;51.206;3.326;2022-11-20T05:04:07;98.40;;;35.63;;
44989;SDS011;30723;51.206;3.326;2022-11-20T05:06:33;104.97;;;37.70;;
44989;SDS011;30723;51.206;3.326;2022-11-20T05:08:59;105.78;;;37.03;;
44989;SDS011;30723;51.206;3.326;2022-11-20T05:11:26;110.15;;;38.15;;
44989;SDS011;30723;51.206;3.326;2022-11-20T05:13:54;102.93;;;38.72;;
44989;SDS011;30723;51.206;3.326;2022-11-20T05:16:23;115.05;;;38.28;;
44989;SDS011;30723;51.206;3.326;2022-11-20T05:18:50;123.40;;;41.47;;
44989;SDS011;30723;51.206;3.326;2022-11-20T05:21:17;118.43;;;39.08;;
44989;SDS011;30723;51.206;3.326;2022-11-20T05:23:44;128.35;;;39.28;;
44989;SDS011;30723;51.206;3.326;2022-11-20T05:26:17;127.53;;;41.35;;
44989;SDS011;30723;51.206;3.326;2022-11-20T05:28:46;131.13;;;40.70;;
44989;SDS011;30723;51.206;3.326;2022-11-20T05:31:14;139.80;;;41.83;;
44989;SDS011;30723;51.206;3.326;2022-11-20T05:33:42;132.57;;;43.00;;
44989;SDS011;30723;51.206;3.326;2022-11-20T05:36:09;140.32;;;42.28;;
44989;SDS011;30723;51.206;3.326;2022-11-20T05:38:36;142.52;;;43.80;;
44989;SDS011;30723;51.206;3.326;2022-11-20T05:41:03;152.40;;;42.13;;
44989;SDS011;30723;51.206;3.326;2022-11-20T05:43:34;148.50;;;41.83;;
44989;SDS011;30723;51.206;3.326;2022-11-20T05:46:01;153.30;;;44.73;;
44989;SDS011;30723;51.206;3.326;2022-11-20T05:48:27;158.48;;;44.75;;
44989;SDS011;30723;51.206;3.326;2022-11-20T05:50:53;166.18;;;45.83;;
44989;SDS011;30723;51.206;3.326;2022-11-20T05:53:18;167.55;;;46.15;;
44989;SDS011;30723;51.206;3.326;2022-11-20T05:55:44;151.98;;;44.22;;
44989;SDS011;30723;51.206;3.326;2022-11-20T05:58:12;165.15;;;44.65;;
44989;SDS011;30723;51.206;3.326;2022-11-20T06:00:38;165.93;;;46.28;;
44989;SDS011;30723;51.206;3.326;2022-11-20T06:03:04;151.23;;;43.88;;
44989;SDS011;30723;51.206;3.326;2022-11-20T06:05:29;149.93;;;46.00;;
44989;SDS011;30723;51.206;3.326;2022-11-20T06:07:55;161.48;;;44.30;;
44989;SDS011;30723;51.206;3.326;2022-11-20T06:10:21;140.07;;;43.20;;
44989;SDS011;30723;51.206;3.326;2022-11-20T06:12:47;147.23;;;44.35;;
44989;SDS011;30723;51.206;3.326;2022-11-20T06:15:12;136.70;;;42.05;;
44989;SDS011;30723;51.206;3.326;2022-11-20T06:17:38;136.65;;;40.03;;
44989;SDS011;30723;51.206;3.326;2022-11-20T06:20:04;145.10;;;41.70;;
44989;SDS011;30723;51.206;3.326;2022-11-20T06:22:30;130.43;;;41.35;;
44989;SDS011;30723;51.206;3.326;2022-11-20T06:24:57;130.88;;;40.28;;
44989;SDS011;30723;51.206;3.326;2022-11-20T06:27:23;131.32;;;39.00;;
44989;SDS011;30723;51.206;3.326;2022-11-20T06:29:48;126.55;;;38.85;;
44989;SDS011;30723;51.206;3.326;2022-11-20T06:32:14;127.75;;;39.17;;
44989;SDS011;30723;51.206;3.326;2022-11-20T06:34:40;126.90;;;39.13;;
44989;SDS011;30723;51.206;3.326;2022-11-20T06:37:06;115.53;;;37.28;;
44989;SDS011;30723;51.206;3.326;2022-11-20T06:39:31;117.47;;;37.30;;
44989;SDS011;30723;51.206;3.326;2022-11-20T06:41:57;131.68;;;38.88;;
44989;SDS011;30723;51.206;3.326;2022-11-20T06:44:23;124.22;;;39.08;;
44989;SDS011;30723;51.206;3.326;2022-11-20T06:46:48;129.52;;;40.03;;
44989;SDS011;30723;51.206;3.326;2022-11-20T06:49:14;115.07;;;36.67;;
44989;SDS011;30723;51.206;3.326;2022-11-20T06:51:40;108.60;;;36.50;;
44989;SDS011;30723;51.206;3.326;2022-11-20T06:54:05;130.48;;;38.50;;
44989;SDS011;30723;51.206;3.326;2022-11-20T06:56:31;115.95;;;38.55;;
44989;SDS011;30723;51.206;3.326;2022-11-20T06:58:57;118.60;;;35.00;;
44989;SDS011;30723;51.206;3.326;2022-11-20T07:01:23;113.32;;;37.13;;
44989;SDS011;30723;51.206;3.326;2022-11-20T07:03:49;108.35;;;34.88;;
44989;SDS011;30723;51.206;3.326;2022-11-20T07:06:16;112.47;;;36.75;;
44989;SDS011;30723;51.206;3.326;2022-11-20T07:08:41;114.22;;;34.28;;
44989;SDS011;30723;51.206;3.326;2022-11-20T07:11:07;114.72;;;32.75;;
44989;SDS011;30723;51.206;3.326;2022-11-20T07:13:33;128.27;;;34.25;;
44989;SDS011;30723;51.206;3.326;2022-11-20T07:15:59;117.97;;;33.75;;
44989;SDS011;30723;51.206;3.326;2022-11-20T07:18:27;120.55;;;32.60;;
44989;SDS011;30723;51.206;3.326;2022-11-20T07:20:52;118.30;;;32.97;;
44989;SDS011;30723;51.206;3.326;2022-11-20T07:23:18;120.65;;;34.85;;
44989;SDS011;30723;51.206;3.326;2022-11-20T07:25:44;119.43;;;32.60;;
44989;SDS011;30723;51.206;3.326;2022-11-20T07:28:10;115.97;;;31.98;;
44989;SDS011;30723;51.206;3.326;2022-11-20T07:30:35;110.93;;;32.85;;
44989;SDS011;30723;51.206;3.326;2022-11-20T07:33:01;114.70;;;32.17;;
44989;SDS011;30723;51.206;3.326;2022-11-20T07:35:27;117.35;;;33.10;;
44989;SDS011;30723;51.206;3.326;2022-11-20T07:37:53;116.22;;;32.30;;
44989;SDS011;30723;51.206;3.326;2022-11-20T07:40:19;100.00;;;30.30;;
44989;SDS011;30723;51.206;3.326;2022-11-20T07:42:49;112.05;;;32.50;;
44989;SDS011;30723;51.206;3.326;2022-11-20T07:45:19;113.07;;;33.80;;
44989;SDS011;30723;51.206;3.326;2022-11-20T07:47:46;115.47;;;33.60;;
44989;SDS011;30723;51.206;3.326;2022-11-20T07:50:11;125.68;;;34.97;;
44989;SDS011;30723;51.206;3.326;2022-11-20T07:52:38;114.97;;;34.60;;
44989;SDS011;30723;51.206;3.326;2022-11-20T07:55:04;134.48;;;33.90;;
44989;SDS011;30723;51.206;3.326;2022-11-20T07:57:30;131.00;;;33.42;;
44989;SDS011;30723;51.206;3.326;2022-11-20T07:59:55;122.25;;;33.92;;
44989;SDS011;30723;51.206;3.326;2022-11-20T08:02:21;122.05;;;33.55;;
44989;SDS011;30723;51.206;3.326;2022-11-20T08:04:47;130.18;;;33.78;;
44989;SDS011;30723;51.206;3.326;2022-11-20T08:07:13;132.40;;;35.25;;
44989;SDS011;30723;51.206;3.326;2022-11-20T08:09:39;127.72;;;35.75;;
44989;SDS011;30723;51.206;3.326;2022-11-20T08:12:04;150.05;;;37.88;;
44989;SDS011;30723;51.206;3.326;2022-11-20T08:14:49;145.10;;;37.38;;
44989;SDS011;30723;51.206;3.326;2022-11-20T08:17:15;147.90;;;39.10;;
44989;SDS011;30723;51.206;3.326;2022-11-20T08:19:40;141.88;;;36.33;;
44989;SDS011;30723;51.206;3.326;2022-11-20T08:22:06;161.38;;;39.50;;
44989;SDS011;30723;51.206;3.326;2022-11-20T08:24:32;157.45;;;38.53;;
44989;SDS011;30723;51.206;3.326;2022-11-20T08:26:58;156.68;;;38.38;;
44989;SDS011;30723;51.206;3.326;2022-11-20T08:29:24;163.60;;;40.38;;
44989;SDS011;30723;51.206;3.326;2022-11-20T08:31:51;166.95;;;40.35;;
44989;SDS011;30723;51.206;3.326;2022-11-20T08:34:17;169.82;;;40.03;;
44989;SDS011;30723;51.206;3.326;2022-11-20T08:36:43;184.80;;;42.72;;
44989;SDS011;30723;51.206;3.326;2022-11-20T08:39:11;161.45;;;39.50;;
44989;SDS011;30723;51.206;3.326;2022-11-20T08:41:37;167.90;;;41.22;;
44989;SDS011;30723;51.206;3.326;2022-11-20T08:44:05;174.63;;;42.72;;
44989;SDS011;30723;51.206;3.326;2022-11-20T08:46:35;159.20;;;41.67;;
44989;SDS011;30723;51.206;3.326;2022-11-20T08:49:03;171.45;;;43.70;;
44989;SDS011;30723;51.206;3.326;2022-11-20T08:51:30;147.95;;;41.42;;
44989;SDS011;30723;51.206;3.326;2022-11-20T08:53:55;148.07;;;41.38;;
44989;SDS011;30723;51.206;3.326;2022-11-20T08:56:21;152.73;;;38.80;;
44989;SDS011;30723;51.206;3.326;2022-11-20T08:58:47;152.48;;;39.58;;
44989;SDS011;30723;51.206;3.326;2022-11-20T09:01:14;151.75;;;39.08;;
44989;SDS011;30723;51.206;3.326;2022-11-20T09:03:40;131.75;;;37.58;;
44989;SDS011;30723;51.206;3.326;2022-11-20T09:06:07;133.32;;;36.78;;
44989;SDS011;30723;51.206;3.326;2022-11-20T09:08:33;123.88;;;36.55;;
44989;SDS011;30723;51.206;3.326;2022-11-20T09:11:01;136.85;;;37.10;;
44989;SDS011;30723;51.206;3.326;2022-11-20T09:13:27;124.40;;;35.38;;
44989;SDS011;30723;51.206;3.326;2022-11-20T09:15:54;122.20;;;35.20;;
44989;SDS011;30723;51.206;3.326;2022-11-20T09:18:21;115.03;;;36.45;;
44989;SDS011;30723;51.206;3.326;2022-11-20T09:20:47;112.63;;;34.35;;
44989;SDS011;30723;51.206;3.326;2022-11-20T09:23:14;113.22;;;33.65;;
44989;SDS011;30723;51.206;3.326;2022-11-20T09:25:40;112.50;;;33.08;;
44989;SDS011;30723;51.206;3.326;2022-11-20T09:28:06;124.90;;;33.35;;
44989;SDS011;30723;51.206;3.326;2022-11-20T09:30:32;107.88;;;33.15;;
44989;SDS011;30723;51.206;3.326;2022-11-20T09:32:57;101.95;;;31.95;;
44989;SDS011;30723;51.206;3.326;2022-11-20T09:35:23;95.75;;;31.52;;
44989;SDS011;30723;51.206;3.326;2022-11-20T09:37:49;88.20;;;28.90;;
44989;SDS011;30723;51.206;3.326;2022-11-20T09:45:37;86.13;;;28.95;;
44989;SDS011;30723;51.206;3.326;2022-11-20T09:51:16;86.33;;;28.50;;
44989;SDS011;30723;51.206;3.326;2022-11-20T09:54:11;63.97;;;24.73;;
44989;SDS011;30723;51.206;3.326;2022-11-20T09:56:40;67.60;;;25.95;;
44989;SDS011;30723;51.206;3.326;2022-11-20T09:59:14;70.85;;;26.10;;
44989;SDS011;30723;51.206;3.326;2022-11-20T10:02:00;66.45;;;24.98;;
44989;SDS011;30723;51.206;3.326;2022-11-20T10:04:31;65.00;;;24.63;;
44989;SDS011;30723;51.206;3.326;2022-11-20T10:09:52;61.47;;;24.38;;
44989;SDS011;30723;51.206;3.326;2022-11-20T10:12:23;58.00;;;23.35;;
44989;SDS011;30723;51.206;3.326;2022-11-20T10:15:10;59.55;;;25.08;;
44989;SDS011;30723;51.206;3.326;2022-11-20T10:23:47;55.75;;;22.42;;
44989;SDS011;30723;51.206;3.326;2022-11-20T10:26:42;43.33;;;19.50;;
44989;SDS011;30723;51.206;3.326;2022-11-20T10:29:18;44.80;;;20.42;;
44989;SDS011;30723;51.206;3.326;2022-11-20T10:31:54;46.05;;;21.38;;
44989;SDS011;30723;51.206;3.326;2022-11-20T10:37:11;32.05;;;16.55;;
44989;SDS011;30723;51.206;3.326;2022-11-20T10:43:13;30.65;;;14.05;;
44989;SDS011;30723;51.206;3.326;2022-11-20T10:45:43;26.63;;;13.75;;
44989;SDS011;30723;51.206;3.326;2022-11-20T10:48:19;26.80;;;14.05;;
44989;SDS011;30723;51.206;3.326;2022-11-20T10:50:56;17.92;;;12.07;;
44989;SDS011;30723;51.206;3.326;2022-11-20T10:54:09;18.65;;;10.77;;
44989;SDS011;30723;51.206;3.326;2022-11-20T10:57:07;15.13;;;9.40;;
44989;SDS011;30723;51.206;3.326;2022-11-20T10:59:48;15.20;;;9.32;;
44989;SDS011;30723;51.206;3.326;2022-11-20T11:02:29;21.83;;;10.32;;
44989;SDS011;30723;51.206;3.326;2022-11-20T11:05:22;15.52;;;9.18;;
44989;SDS011;30723;51.206;3.326;2022-11-20T11:07:57;20.73;;;10.55;;
44989;SDS011;30723;51.206;3.326;2022-11-20T11:10:26;16.83;;;8.20;;
44989;SDS011;30723;51.206;3.326;2022-11-20T11:13:01;18.55;;;7.75;;
44989;SDS011;30723;51.206;3.326;2022-11-20T11:15:45;19.58;;;8.13;;
44989;SDS011;30723;51.206;3.326;2022-11-20T11:18:11;13.57;;;7.38;;
44989;SDS011;30723;51.206;3.326;2022-11-20T11:20:49;14.82;;;9.65;;
44989;SDS011;30723;51.206;3.326;2022-11-20T11:23:35;14.88;;;7.13;;
44989;SDS011;30723;51.206;3.326;2022-11-20T11:26:03;13.50;;;6.20;;
44989;SDS011;30723;51.206;3.326;2022-11-20T11:28:30;11.10;;;5.13;;
44989;SDS011;30723;51.206;3.326;2022-11-20T11:30:56;14.00;;;5.63;;
44989;SDS011;30723;51.206;3.326;2022-11-20T11:33:23;11.88;;;5.47;;
44989;SDS011;30723;51.206;3.326;2022-11-20T11:36:03;8.48;;;4.53;;
44989;SDS011;30723;51.206;3.326;2022-11-20T11:38:41;9.13;;;3.95;;
44989;SDS011;30723;51.206;3.326;2022-11-20T11:41:15;6.13;;;3.97;;
44989;SDS011;30723;51.206;3.326;2022-11-20T11:43:51;11.07;;;4.32;;
44989;SDS011;30723;51.206;3.326;2022-11-20T11:46:35;13.02;;;4.40;;
44989;SDS011;30723;51.206;3.326;2022-11-20T11:57:32;11.60;;;5.88;;
44989;SDS011;30723;51.206;3.326;2022-11-20T12:00:16;14.57;;;7.85;;
44989;SDS011;30723;51.206;3.326;2022-11-20T12:07:42;10.75;;;6.38;;
44989;SDS011;30723;51.206;3.326;2022-11-20T12:10:21;11.18;;;5.55;;
44989;SDS011;30723;51.206;3.326;2022-11-20T12:13:10;13.20;;;5.80;;
44989;SDS011;30723;51.206;3.326;2022-11-20T12:15:50;18.58;;;6.47;;
44989;SDS011;30723;51.206;3.326;2022-11-20T12:18:20;11.45;;;6.40;;
44989;SDS011;30723;51.206;3.326;2022-11-20T12:23:44;12.63;;;6.78;;
44989;SDS011;30723;51.206;3.326;2022-11-20T12:38:33;8.73;;;5.93;;
44989;SDS011;30723;51.206;3.326;2022-11-20T12:55:54;10.13;;;5.90;;
44989;SDS011;30723;51.206;3.326;2022-11-20T13:01:15;10.27;;;6.60;;
44989;SDS011;30723;51.206;3.326;2022-11-20T13:07:05;9.57;;;7.07;;
44989;SDS011;30723;51.206;3.326;2022-11-20T13:09:35;12.02;;;7.78;;
44989;SDS011;30723;51.206;3.326;2022-11-20T13:17:28;8.73;;;7.22;;
44989;SDS011;30723;51.206;3.326;2022-11-20T13:20:04;11.40;;;7.53;;
44989;SDS011;30723;51.206;3.326;2022-11-20T13:22:50;13.25;;;7.88;;
44989;SDS011;30723;51.206;3.326;2022-11-20T13:25:30;12.95;;;11.55;;
44989;SDS011;30723;51.206;3.326;2022-11-20T13:28:02;12.82;;;8.77;;
44989;SDS011;30723;51.206;3.326;2022-11-20T13:30:52;15.30;;;10.52;;
44989;SDS011;30723;51.206;3.326;2022-11-20T13:33:37;14.98;;;11.15;;
44989;SDS011;30723;51.206;3.326;2022-11-20T13:36:07;18.23;;;12.95;;
44989;SDS011;30723;51.206;3.326;2022-11-20T13:38:51;12.30;;;9.90;;
44989;SDS011;30723;51.206;3.326;2022-11-20T13:41:26;18.90;;;10.38;;
44989;SDS011;30723;51.206;3.326;2022-11-20T13:44:46;13.60;;;10.02;;
44989;SDS011;30723;51.206;3.326;2022-11-20T13:46:58;15.18;;;12.20;;
44989;SDS011;30723;51.206;3.326;2022-11-20T13:49:42;12.70;;;10.07;;
44989;SDS011;30723;51.206;3.326;2022-11-20T14:02:38;11.57;;;7.78;;
44989;SDS011;30723;51.206;3.326;2022-11-20T14:05:04;13.90;;;8.25;;
44989;SDS011;30723;51.206;3.326;2022-11-20T14:07:38;12.82;;;7.82;;
44989;SDS011;30723;51.206;3.326;2022-11-20T14:10:23;15.77;;;9.40;;
44989;SDS011;30723;51.206;3.326;2022-11-20T14:12:51;15.18;;;8.13;;
44989;SDS011;30723;51.206;3.326;2022-11-20T14:15:25;9.85;;;7.65;;
44989;SDS011;30723;51.206;3.326;2022-11-20T14:17:52;18.90;;;7.65;;
44989;SDS011;30723;51.206;3.326;2022-11-20T14:20:18;13.38;;;6.18;;
44989;SDS011;30723;51.206;3.326;2022-11-20T14:22:52;11.70;;;5.75;;
44989;SDS011;30723;51.206;3.326;2022-11-20T14:25:19;17.10;;;4.90;;
44989;SDS011;30723;51.206;3.326;2022-11-20T14:27:56;28.48;;;6.53;;
44989;SDS011;30723;51.206;3.326;2022-11-20T14:30:24;12.35;;;4.10;;
44989;SDS011;30723;51.206;3.326;2022-11-20T14:32:56;13.00;;;3.88;;
44989;SDS011;30723;51.206;3.326;2022-11-20T14:35:27;15.65;;;3.38;;
44989;SDS011;30723;51.206;3.326;2022-11-20T14:37:54;22.67;;;3.60;;
44989;SDS011;30723;51.206;3.326;2022-11-20T14:40:23;20.63;;;3.55;;
44989;SDS011;30723;51.206;3.326;2022-11-20T14:43:01;13.68;;;3.38;;
44989;SDS011;30723;51.206;3.326;2022-11-20T14:45:40;23.90;;;3.92;;
44989;SDS011;30723;51.206;3.326;2022-11-20T14:48:08;12.70;;;3.00;;
44989;SDS011;30723;51.206;3.326;2022-11-20T14:50:37;22.97;;;3.60;;
44989;SDS011;30723;51.206;3.326;2022-11-20T14:53:04;24.70;;;3.75;;
44989;SDS011;30723;51.206;3.326;2022-11-20T14:55:31;23.23;;;3.83;;
44989;SDS011;30723;51.206;3.326;2022-11-20T14:57:58;21.27;;;3.42;;
44989;SDS011;30723;51.206;3.326;2022-11-20T15:00:33;21.45;;;4.03;;
44989;SDS011;30723;51.206;3.326;2022-11-20T15:02:59;20.30;;;3.55;;
44989;SDS011;30723;51.206;3.326;2022-11-20T15:05:26;23.75;;;3.67;;
44989;SDS011;30723;51.206;3.326;2022-11-20T15:08:10;17.90;;;3.40;;
44989;SDS011;30723;51.206;3.326;2022-11-20T15:10:37;25.73;;;3.45;;
44989;SDS011;30723;51.206;3.326;2022-11-20T15:13:10;21.58;;;3.10;;
44989;SDS011;30723;51.206;3.326;2022-11-20T15:15:48;24.75;;;3.78;;
44989;SDS011;30723;51.206;3.326;2022-11-20T15:18:19;20.10;;;3.75;;
44989;SDS011;30723;51.206;3.326;2022-11-20T15:20:47;18.85;;;3.63;;
44989;SDS011;30723;51.206;3.326;2022-11-20T15:23:14;20.67;;;3.08;;
44989;SDS011;30723;51.206;3.326;2022-11-20T15:25:43;19.33;;;2.65;;
44989;SDS011;30723;51.206;3.326;2022-11-20T15:30:46;34.92;;;9.88;;
44989;SDS011;30723;51.206;3.326;2022-11-20T15:33:14;31.00;;;6.88;;
44989;SDS011;30723;51.206;3.326;2022-11-20T15:35:40;15.32;;;3.58;;
44989;SDS011;30723;51.206;3.326;2022-11-20T15:38:06;20.63;;;3.30;;
44989;SDS011;30723;51.206;3.326;2022-11-20T15:40:31;19.52;;;3.65;;
44989;SDS011;30723;51.206;3.326;2022-11-20T15:42:57;21.33;;;3.65;;
44989;SDS011;30723;51.206;3.326;2022-11-20T15:48:18;21.77;;;3.72;;
44989;SDS011;30723;51.206;3.326;2022-11-20T15:53:22;18.10;;;5.35;;
44989;SDS011;30723;51.206;3.326;2022-11-20T15:55:49;20.90;;;4.40;;
44989;SDS011;30723;51.206;3.326;2022-11-20T15:58:15;16.20;;;4.00;;
44989;SDS011;30723;51.206;3.326;2022-11-20T16:00:43;13.43;;;4.20;;
44989;SDS011;30723;51.206;3.326;2022-11-20T16:03:10;22.38;;;5.30;;
44989;SDS011;30723;51.206;3.326;2022-11-20T16:05:37;18.17;;;5.47;;
44989;SDS011;30723;51.206;3.326;2022-11-20T16:08:03;18.08;;;5.85;;
44989;SDS011;30723;51.206;3.326;2022-11-20T16:10:29;18.40;;;5.38;;
44989;SDS011;30723;51.206;3.326;2022-11-20T16:12:55;27.33;;;7.35;;
44989;SDS011;30723;51.206;3.326;2022-11-20T16:15:40;24.08;;;6.88;;